Herron, Michigan
Current Conditions -  °F | °C
As of 3:54 AM on Friday 28 Nov 2014 (Local Time) from KAPN Reporting Station
Broken Clouds Broken Clouds  
Wind Chill:   Ceiling: 2200
Heat Index: 15°   Visibility: 10mi
Dew Point: 10°   Wind: 8mph
Humidity: 80%   Direction: 260°W
Pressure: 30.28"   Gusts: NA
Location:  45.02°N, 83.65°W
Report Text: KAPN 280854Z AUTO 26007KT 10SM BKN022 BKN037 M09/M12 A3028 RMK AO2 SLP266 T10941122 51013
Loading
Personal Weather Stations






























Interactive Weather Map New forecast layout! Learn more

10-Day Weather Forecast

Advertisements
Track Severe Weather on mobile